Time,TemperatureF,DewpointF,PressureIn,WindDirection,WindDirectionDegrees,WindSpeedMPH,WindSpeedGustMPH,Humidity,HourlyPrecipIn,Conditions,Clouds,dailyrainin,SoftwareType,DateUTC
2013-03-03 00:01:00,34.1,12.9,30.25,WNW,284,0.0,0.0,41,0.00,,---,0.00,VWS V14.01,2013-03-03 07:01:00,
2013-03-03 00:06:00,33.8,12.6,30.24,WNW,296,1.0,2.0,41,0.00,,---,0.00,VWS V14.01,2013-03-03 07:06:00,
2013-03-03 00:11:00,33.2,12.6,30.24,WNW,292,2.0,6.0,42,0.00,,---,0.00,VWS V14.01,2013-03-03 07:11:00,
2013-03-03 00:16:00,33.0,12.4,30.23,West,264,6.0,6.0,42,0.00,,---,0.00,VWS V14.01,2013-03-03 07:16:00,
2013-03-03 00:21:00,33.0,13.0,30.23,SW,235,0.0,1.0,43,0.00,,---,0.00,VWS V14.01,2013-03-03 07:21:00,
2013-03-03 00:26:00,32.7,12.7,30.22,SE,139,5.0,7.0,43,0.00,,---,0.00,VWS V14.01,2013-03-03 07:26:00,
2013-03-03 00:31:00,32.9,12.9,30.22,SSE,155,6.0,6.0,43,0.00,,---,0.00,VWS V14.01,2013-03-03 07:31:00,
2013-03-03 00:36:00,32.8,12.8,30.22,WSW,238,6.0,6.0,43,0.00,,---,0.00,VWS V14.01,2013-03-03 07:36:00,
2013-03-03 00:41:00,32.5,13.0,30.21,SE,132,9.0,9.0,44,0.00,,---,0.00,VWS V14.01,2013-03-03 07:41:00,
2013-03-03 00:46:00,32.8,13.3,30.20,SSE,163,9.0,14.0,44,0.00,,---,0.00,VWS V14.01,2013-03-03 07:46:00,
2013-03-03 00:51:00,34.0,12.8,30.20,SE,125,6.0,10.0,41,0.00,,---,0.00,VWS V14.01,2013-03-03 07:51:00,
2013-03-03 00:57:00,34.4,13.1,30.19,SE,138,12.0,19.0,41,0.00,,---,0.00,VWS V14.01,2013-03-03 07:57:00,
2013-03-03 01:02:00,34.9,12.5,30.19,SE,141,9.0,13.0,39,0.00,,---,0.00,VWS V14.01,2013-03-03 08:02:00,
2013-03-03 01:07:00,35.5,13.0,30.19,SE,136,8.0,15.0,39,0.00,,---,0.00,VWS V14.01,2013-03-03 08:07:00,
2013-03-03 01:12:00,35.8,12.7,30.18,SE,134,7.0,10.0,38,0.00,,---,0.00,VWS V14.01,2013-03-03 08:12:00,
2013-03-03 01:17:00,36.0,12.9,30.18,SE,128,7.0,10.0,38,0.00,,---,0.00,VWS V14.01,2013-03-03 08:17:00,
2013-03-03 01:22:00,35.7,12.0,30.18,SE,124,6.0,9.0,37,0.00,,---,0.00,VWS V14.01,2013-03-03 08:22:00,
2013-03-03 01:27:00,35.6,11.9,30.17,SE,136,9.0,9.0,37,0.00,,---,0.00,VWS V14.01,2013-03-03 08:27:00,
2013-03-03 01:32:00,35.5,12.4,30.17,South,181,8.0,8.0,38,0.00,,---,0.00,VWS V14.01,2013-03-03 08:32:00,
2013-03-03 01:37:00,35.4,11.1,30.17,SE,128,7.0,11.0,36,0.00,,---,0.00,VWS V14.01,2013-03-03 08:37:00,
2013-03-03 01:42:00,35.7,11.4,30.16,SE,142,8.0,8.0,36,0.00,,---,0.00,VWS V14.01,2013-03-03 08:42:00,
2013-03-03 01:47:00,35.8,10.8,30.16,ESE,122,5.0,6.0,35,0.00,,---,0.00,VWS V14.01,2013-03-03 08:47:00,
2013-03-03 01:52:00,35.7,10.1,30.16,ESE,122,2.0,5.0,34,0.00,,---,0.00,VWS V14.01,2013-03-03 08:52:00,
2013-03-03 01:57:00,35.7,10.8,30.16,SE,127,4.0,6.0,35,0.00,,---,0.00,VWS V14.01,2013-03-03 08:57:00,
2013-03-03 02:02:00,35.5,10.6,30.14,ESE,109,8.0,13.0,35,0.00,,---,0.00,VWS V14.01,2013-03-03 09:02:00,
2013-03-03 02:07:00,35.3,11.6,30.13,ESE,113,8.0,11.0,37,0.00,,---,0.00,VWS V14.01,2013-03-03 09:07:00,
2013-03-03 02:12:00,35.1,11.5,30.13,SE,136,9.0,9.0,37,0.00,,---,0.00,VWS V14.01,2013-03-03 09:12:00,
2013-03-03 02:17:00,35.2,12.7,30.12,SE,139,11.0,13.0,39,0.00,,---,0.00,VWS V14.01,2013-03-03 09:17:00,
2013-03-03 02:22:00,35.8,12.1,30.11,ESE,119,7.0,15.0,37,0.00,,---,0.00,VWS V14.01,2013-03-03 09:22:00,
2013-03-03 02:27:00,36.2,12.4,30.11,SE,140,13.0,16.0,37,0.00,,---,0.00,VWS V14.01,2013-03-03 09:27:00,
2013-03-03 02:32:00,36.3,12.5,30.11,SE,131,2.0,7.0,37,0.00,,---,0.00,VWS V14.01,2013-03-03 09:32:00,
2013-03-03 02:37:00,36.4,13.2,30.09,SE,130,6.0,9.0,38,0.00,,---,0.00,VWS V14.01,2013-03-03 09:37:00,
2013-03-03 02:42:00,37.0,13.2,30.08,ESE,110,10.0,13.0,37,0.00,,---,0.00,VWS V14.01,2013-03-03 09:42:00,
2013-03-03 02:47:00,37.1,12.6,30.08,East,100,8.0,10.0,36,0.00,,---,0.00,VWS V14.01,2013-03-03 09:47:00,
2013-03-03 02:52:00,37.0,12.5,30.08,East,100,10.0,21.0,36,0.00,,---,0.00,VWS V14.01,2013-03-03 09:52:00,
2013-03-03 02:57:00,37.2,13.3,30.08,East,97,11.0,14.0,37,0.00,,---,0.00,VWS V14.01,2013-03-03 09:57:00,
2013-03-03 03:02:00,37.0,13.2,30.07,East,98,10.0,16.0,37,0.00,,---,0.00,VWS V14.01,2013-03-03 10:02:00,
2013-03-03 03:07:00,37.0,13.8,30.07,ESE,115,9.0,12.0,38,0.00,,---,0.00,VWS V14.01,2013-03-03 10:07:00,
2013-03-03 03:12:00,36.5,13.3,30.06,ESE,112,9.0,15.0,38,0.00,,---,0.00,VWS V14.01,2013-03-03 10:12:00,
2013-03-03 03:17:00,36.2,13.6,30.06,East,98,18.0,19.0,39,0.00,,---,0.00,VWS V14.01,2013-03-03 10:17:00,
2013-03-03 03:22:00,36.2,13.6,30.05,East,98,9.0,13.0,39,0.00,,---,0.00,VWS V14.01,2013-03-03 10:22:00,
2013-03-03 03:27:00,35.8,13.9,30.05,ESE,113,11.0,16.0,40,0.00,,---,0.00,VWS V14.01,2013-03-03 10:27:00,
2013-03-03 03:32:00,35.9,13.9,30.05,East,94,10.0,15.0,40,0.00,,---,0.00,VWS V14.01,2013-03-03 10:32:00,
2013-03-03 03:37:00,36.0,14.0,30.05,ESE,103,12.0,15.0,40,0.00,,---,0.00,VWS V14.01,2013-03-03 10:37:00,
2013-03-03 03:42:00,36.4,14.4,30.06,East,90,12.0,12.0,40,0.00,,---,0.00,VWS V14.01,2013-03-03 10:42:00,
2013-03-03 03:47:00,36.1,15.2,30.06,SE,137,9.0,9.0,42,0.00,,---,0.00,VWS V14.01,2013-03-03 10:47:00,
2013-03-03 03:52:00,36.2,14.2,30.04,ESE,113,8.0,13.0,40,0.00,,---,0.00,VWS V14.01,2013-03-03 10:52:00,
2013-03-03 03:57:00,36.5,13.9,30.04,ESE,121,8.0,12.0,39,0.00,,---,0.00,VWS V14.01,2013-03-03 10:57:00,
2013-03-03 04:02:00,36.4,13.8,30.05,East,84,13.0,14.0,39,0.00,,---,0.00,VWS V14.01,2013-03-03 11:02:00,
2013-03-03 04:07:00,36.6,14.6,30.03,East,81,10.0,13.0,40,0.00,,---,0.00,VWS V14.01,2013-03-03 11:07:00,
2013-03-03 04:12:00,36.3,13.7,30.03,North,355,2.0,2.0,39,0.00,,---,0.00,VWS V14.01,2013-03-03 11:12:00,
2013-03-03 04:17:00,35.8,13.9,30.04,WNW,287,4.0,4.0,40,0.00,,---,0.00,VWS V14.01,2013-03-03 11:17:00,
2013-03-03 04:22:00,35.7,13.2,30.04,SSE,155,4.0,5.0,39,0.00,,---,0.00,VWS V14.01,2013-03-03 11:22:00,
2013-03-03 04:27:00,35.8,13.9,30.04,ESE,115,8.0,8.0,40,0.00,,---,0.00,VWS V14.01,2013-03-03 11:27:00,
2013-03-03 04:32:00,35.8,13.3,30.04,NNW,329,4.0,12.0,39,0.00,,---,0.00,VWS V14.01,2013-03-03 11:32:00,
2013-03-03 04:37:00,36.1,13.6,30.03,South,175,6.0,13.0,39,0.00,,---,0.00,VWS V14.01,2013-03-03 11:37:00,
2013-03-03 04:42:00,36.4,13.8,30.03,SSW,192,8.0,16.0,39,0.00,,---,0.00,VWS V14.01,2013-03-03 11:42:00,
2013-03-03 04:47:00,36.4,14.4,30.02,ESE,117,2.0,3.0,40,0.00,,---,0.00,VWS V14.01,2013-03-03 11:47:00,
2013-03-03 04:52:00,36.0,13.5,30.03,South,180,4.0,18.0,39,0.00,,---,0.00,VWS V14.01,2013-03-03 11:52:00,
2013-03-03 04:57:00,36.1,15.2,30.01,South,186,9.0,11.0,42,0.00,,---,0.00,VWS V14.01,2013-03-03 11:57:00,
2013-03-03 05:02:00,36.0,14.0,30.01,SSW,202,11.0,13.0,40,0.00,,---,0.00,VWS V14.01,2013-03-03 12:02:00,
2013-03-03 05:07:00,36.0,14.0,30.02,SSW,204,7.0,11.0,40,0.00,,---,0.00,VWS V14.01,2013-03-03 12:07:00,
2013-03-03 05:13:00,35.5,13.6,30.01,SE,124,6.0,10.0,40,0.00,,---,0.00,VWS V14.01,2013-03-03 12:13:00,
2013-03-03 05:18:00,35.4,14.1,30.00,South,178,10.0,14.0,41,0.00,,---,0.00,VWS V14.01,2013-03-03 12:18:00,
2013-03-03 05:23:00,35.4,14.1,30.00,SSW,207,11.0,11.0,41,0.00,,---,0.00,VWS V14.01,2013-03-03 12:23:00,
2013-03-03 05:28:00,35.4,14.1,29.99,WSW,244,5.0,11.0,41,0.00,,---,0.00,VWS V14.01,2013-03-03 12:28:00,
2013-03-03 05:33:00,35.2,13.9,29.99,WSW,258,6.0,10.0,41,0.00,,---,0.00,VWS V14.01,2013-03-03 12:33:00,
2013-03-03 05:38:00,35.1,13.8,29.99,WNW,295,7.0,7.0,41,0.00,,---,0.00,VWS V14.01,2013-03-03 12:38:00,
2013-03-03 05:43:00,35.1,13.8,29.98,SW,227,11.0,11.0,41,0.00,,---,0.00,VWS V14.01,2013-03-03 12:43:00,
2013-03-03 05:48:00,35.3,13.4,29.99,SSW,199,9.0,18.0,40,0.00,,---,0.00,VWS V14.01,2013-03-03 12:48:00,
2013-03-03 05:53:00,35.2,13.3,29.99,NNW,336,8.0,10.0,40,0.00,,---,0.00,VWS V14.01,2013-03-03 12:53:00,
2013-03-03 05:58:00,35.2,13.9,29.98,SW,219,10.0,23.0,41,0.00,,---,0.00,VWS V14.01,2013-03-03 12:58:00,
2013-03-03 06:03:00,35.0,13.7,29.98,South,182,18.0,28.0,41,0.00,,---,0.00,VWS V14.01,2013-03-03 13:03:00,
2013-03-03 06:08:00,35.0,13.1,29.97,WSW,243,7.0,9.0,40,0.00,,---,0.00,VWS V14.01,2013-03-03 13:08:00,
2013-03-03 06:13:00,35.0,13.1,29.97,SSW,204,11.0,13.0,40,0.00,,---,0.00,VWS V14.01,2013-03-03 13:13:00,
2013-03-03 06:18:00,35.0,13.7,29.97,SSW,196,7.0,8.0,41,0.00,,---,0.00,VWS V14.01,2013-03-03 13:18:00,
2013-03-03 06:23:00,35.0,13.7,29.97,ESE,123,21.0,21.0,41,0.00,,---,0.00,VWS V14.01,2013-03-03 13:23:00,
2013-03-03 06:28:00,35.3,12.8,29.98,SSE,167,8.0,12.0,39,0.00,,---,0.00,VWS V14.01,2013-03-03 13:28:00,
2013-03-03 06:33:00,35.3,12.8,29.97,ESE,123,6.0,9.0,39,0.00,,---,0.00,VWS V14.01,2013-03-03 13:33:00,
2013-03-03 06:39:00,35.2,12.7,29.98,West,273,7.0,7.0,39,0.00,,---,0.00,VWS V14.01,2013-03-03 13:39:00,
2013-03-03 06:44:00,35.0,13.1,29.98,SSW,202,6.0,12.0,40,0.00,,---,0.00,VWS V14.01,2013-03-03 13:44:00,
2013-03-03 06:49:00,35.1,13.2,29.97,ESE,117,8.0,8.0,40,0.00,,---,0.00,VWS V14.01,2013-03-03 13:49:00,
2013-03-03 06:54:00,34.9,13.6,29.98,SSE,156,1.0,4.0,41,0.00,,---,0.00,VWS V14.01,2013-03-03 13:54:00,
2013-03-03 06:59:00,34.7,13.4,29.97,ENE,66,5.0,5.0,41,0.00,,---,0.00,VWS V14.01,2013-03-03 13:59:00,
2013-03-03 07:04:00,34.6,13.9,29.98,South,189,9.0,21.0,42,0.00,,---,0.00,VWS V14.01,2013-03-03 14:04:00,
2013-03-03 07:09:00,34.8,14.6,29.98,WSW,250,9.0,16.0,43,0.00,,---,0.00,VWS V14.01,2013-03-03 14:09:00,
2013-03-03 07:13:00,35.1,14.3,29.98,SSW,192,10.0,21.0,42,0.00,,---,0.00,VWS V14.01,2013-03-03 14:13:00,
2013-03-03 07:19:00,35.2,14.4,29.96,NNW,338,4.0,18.0,42,0.00,,---,0.00,VWS V14.01,2013-03-03 14:19:00,
2013-03-03 07:24:00,35.4,14.6,29.97,SW,221,11.0,13.0,42,0.00,,---,0.00,VWS V14.01,2013-03-03 14:24:00,
2013-03-03 07:29:00,35.6,14.8,29.97,SW,225,8.0,15.0,42,0.00,,---,0.00,VWS V14.01,2013-03-03 14:29:00,
2013-03-03 07:34:00,35.8,14.4,29.97,WNW,290,11.0,11.0,41,0.00,,---,0.00,VWS V14.01,2013-03-03 14:34:00,
2013-03-03 07:39:00,35.7,14.9,29.97,WSW,248,10.0,21.0,42,0.00,,---,0.00,VWS V14.01,2013-03-03 14:39:00,
2013-03-03 07:44:00,35.6,14.8,29.97,SW,228,14.0,18.0,42,0.00,,---,0.00,VWS V14.01,2013-03-03 14:44:00,
2013-03-03 07:49:00,35.7,14.9,29.97,SSW,209,4.0,7.0,42,0.00,,---,0.00,VWS V14.01,2013-03-03 14:49:00,
2013-03-03 07:54:00,36.0,14.6,29.97,West,261,8.0,16.0,41,0.00,,---,0.00,VWS V14.01,2013-03-03 14:54:00,
2013-03-03 07:59:00,36.3,14.9,29.97,SSW,203,19.0,19.0,41,0.00,,---,0.00,VWS V14.01,2013-03-03 14:59:00,
2013-03-03 08:04:00,36.9,16.0,29.97,SSW,207,10.0,12.0,42,0.00,,---,0.00,VWS V14.01,2013-03-03 15:04:00,
2013-03-03 08:09:00,37.0,14.9,29.97,SSE,159,11.0,20.0,40,0.00,,---,0.00,VWS V14.01,2013-03-03 15:09:00,
2013-03-03 08:13:00,37.0,14.9,29.97,SW,217,12.0,12.0,40,0.00,,---,0.00,VWS V14.01,2013-03-03 15:13:00,
2013-03-03 08:19:00,37.1,15.0,29.98,WSW,242,11.0,16.0,40,0.00,,---,0.00,VWS V14.01,2013-03-03 15:19:00,
2013-03-03 08:23:00,37.0,15.5,29.97,West,277,18.0,27.0,41,0.00,,---,0.00,VWS V14.01,2013-03-03 15:23:00,
2013-03-03 08:29:00,36.8,15.9,29.97,South,175,10.0,16.0,42,0.00,,---,0.00,VWS V14.01,2013-03-03 15:29:00,
2013-03-03 08:34:00,36.9,16.5,29.98,South,187,13.0,15.0,43,0.00,,---,0.00,VWS V14.01,2013-03-03 15:34:00,
2013-03-03 08:39:00,37.6,16.0,29.98,SW,223,16.0,23.0,41,0.00,,---,0.00,VWS V14.01,2013-03-03 15:39:00,
2013-03-03 08:43:00,37.5,16.0,29.97,SSW,198,11.0,13.0,41,0.00,,---,0.00,VWS V14.01,2013-03-03 15:43:00,
2013-03-03 08:49:00,37.4,16.4,29.98,WSW,238,14.0,14.0,42,0.00,,---,0.00,VWS V14.01,2013-03-03 15:49:00,
2013-03-03 08:54:00,37.4,16.4,29.97,SSW,205,14.0,14.0,42,0.00,,---,0.00,VWS V14.01,2013-03-03 15:54:00,
2013-03-03 08:59:00,37.9,16.3,29.96,SW,219,9.0,15.0,41,0.00,,---,0.00,VWS V14.01,2013-03-03 15:59:00,
2013-03-03 09:04:00,38.4,16.8,29.96,SW,217,6.0,10.0,41,0.00,,---,0.00,VWS V14.01,2013-03-03 16:04:00,
2013-03-03 09:09:00,39.3,16.4,29.95,SW,228,8.0,8.0,39,0.00,,---,0.00,VWS V14.01,2013-03-03 16:09:00,
2013-03-03 09:14:00,39.8,16.3,29.95,SSE,166,10.0,10.0,38,0.00,,---,0.00,VWS V14.01,2013-03-03 16:14:00,
2013-03-03 09:19:00,39.8,16.9,29.95,SSW,213,21.0,27.0,39,0.00,,---,0.00,VWS V14.01,2013-03-03 16:19:00,
2013-03-03 09:24:00,39.8,16.9,29.95,SW,232,13.0,13.0,39,0.00,,---,0.00,VWS V14.01,2013-03-03 16:24:00,
2013-03-03 09:29:00,40.2,17.2,29.95,SW,223,14.0,14.0,39,0.00,,---,0.00,VWS V14.01,2013-03-03 16:29:00,
2013-03-03 09:34:00,40.0,16.5,29.95,SW,225,8.0,16.0,38,0.00,,---,0.00,VWS V14.01,2013-03-03 16:34:00,
2013-03-03 09:39:00,39.5,16.6,29.95,WSW,238,14.0,20.0,39,0.00,,---,0.00,VWS V14.01,2013-03-03 16:39:00,
2013-03-03 09:44:00,39.5,16.6,29.94,WSW,243,13.0,13.0,39,0.00,,---,0.00,VWS V14.01,2013-03-03 16:44:00,
2013-03-03 09:49:00,40.3,16.7,29.94,WSW,242,6.0,11.0,38,0.00,,---,0.00,VWS V14.01,2013-03-03 16:49:00,
2013-03-03 09:54:00,41.1,17.4,29.93,SSW,202,11.0,22.0,38,0.00,,---,0.00,VWS V14.01,2013-03-03 16:54:00,
2013-03-03 09:59:00,41.6,16.6,29.92,West,271,23.0,23.0,36,0.00,,---,0.00,VWS V14.01,2013-03-03 16:59:00,
2013-03-03 10:04:00,41.7,16.1,29.93,NW,306,15.0,26.0,35,0.00,,---,0.00,VWS V14.01,2013-03-03 17:04:00,
2013-03-03 10:09:00,41.6,16.6,29.92,SW,217,23.0,29.0,36,0.00,,---,0.00,VWS V14.01,2013-03-03 17:09:00,
2013-03-03 10:14:00,41.2,16.9,29.92,WNW,297,19.0,19.0,37,0.00,,---,0.00,VWS V14.01,2013-03-03 17:14:00,
2013-03-03 10:19:00,41.2,16.3,29.93,WSW,244,9.0,16.0,36,0.00,,---,0.00,VWS V14.01,2013-03-03 17:19:00,
2013-03-03 10:24:00,41.4,17.1,29.93,SSW,205,8.0,21.0,37,0.00,,---,0.00,VWS V14.01,2013-03-03 17:24:00,
2013-03-03 10:30:00,42.2,16.5,29.92,SSW,202,16.0,21.0,35,0.00,,---,0.00,VWS V14.01,2013-03-03 17:30:00,
2013-03-03 10:35:00,41.4,15.8,29.92,SW,227,6.0,20.0,35,0.00,,---,0.00,VWS V14.01,2013-03-03 17:35:00,
2013-03-03 10:40:00,41.0,16.1,29.92,SSW,207,10.0,16.0,36,0.00,,---,0.00,VWS V14.01,2013-03-03 17:40:00,
2013-03-03 10:45:00,41.5,15.9,29.91,WSW,244,20.0,25.0,35,0.00,,---,0.00,VWS V14.01,2013-03-03 17:45:00,
2013-03-03 10:50:00,41.7,17.4,29.91,SW,232,5.0,7.0,37,0.00,,---,0.00,VWS V14.01,2013-03-03 17:50:00,
2013-03-03 10:55:00,42.3,16.6,29.92,West,278,7.0,11.0,35,0.00,,---,0.00,VWS V14.01,2013-03-03 17:55:00,
2013-03-03 11:00:00,42.2,16.5,29.91,WSW,250,7.0,12.0,35,0.00,,---,0.00,VWS V14.01,2013-03-03 18:00:00,
2013-03-03 11:05:00,41.8,16.2,29.92,WSW,246,7.0,24.0,35,0.00,,---,0.00,VWS V14.01,2013-03-03 18:05:00,
2013-03-03 11:10:00,41.4,15.8,29.91,SW,217,13.0,15.0,35,0.00,,---,0.00,VWS V14.01,2013-03-03 18:10:00,
2013-03-03 11:15:00,41.1,16.2,29.90,SSW,203,21.0,21.0,36,0.00,,---,0.00,VWS V14.01,2013-03-03 18:15:00,
2013-03-03 11:20:00,40.9,16.0,29.91,South,170,14.0,14.0,36,0.00,,---,0.00,VWS V14.01,2013-03-03 18:20:00,
2013-03-03 11:25:00,41.6,16.0,29.90,SSW,196,11.0,11.0,35,0.00,,---,0.00,VWS V14.01,2013-03-03 18:25:00,
2013-03-03 11:30:00,42.1,16.4,29.90,SSW,202,16.0,16.0,35,0.00,,---,0.00,VWS V14.01,2013-03-03 18:30:00,
2013-03-03 11:35:00,42.2,16.5,29.89,SSW,192,12.0,12.0,35,0.00,,---,0.00,VWS V14.01,2013-03-03 18:35:00,
2013-03-03 11:40:00,42.0,16.4,29.89,SW,215,6.0,8.0,35,0.00,,---,0.00,VWS V14.01,2013-03-03 18:40:00,
2013-03-03 11:45:00,42.5,16.8,29.89,SSW,205,18.0,22.0,35,0.00,,---,0.00,VWS V14.01,2013-03-03 18:45:00,
2013-03-03 11:50:00,42.9,16.5,29.88,WSW,254,33.0,33.0,34,0.00,,---,0.00,VWS V14.01,2013-03-03 18:50:00,
2013-03-03 11:55:00,42.2,15.9,29.87,SW,215,8.0,15.0,34,0.00,,---,0.00,VWS V14.01,2013-03-03 18:55:00,
2013-03-03 12:00:00,42.3,16.6,29.87,SSW,205,11.0,11.0,35,0.00,,---,0.00,VWS V14.01,2013-03-03 19:00:00,
2013-03-03 12:05:00,42.9,17.1,29.87,SSW,198,11.0,12.0,35,0.00,,---,0.00,VWS V14.01,2013-03-03 19:05:00,
2013-03-03 12:10:00,43.2,16.7,29.86,SW,234,16.0,16.0,34,0.00,,---,0.00,VWS V14.01,2013-03-03 19:10:00,
2013-03-03 12:15:00,43.0,16.6,29.85,SW,216,23.0,24.0,34,0.00,,---,0.00,VWS V14.01,2013-03-03 19:15:00,
2013-03-03 12:20:00,42.8,16.4,29.85,SW,229,9.0,23.0,34,0.00,,---,0.00,VWS V14.01,2013-03-03 19:20:00,
2013-03-03 12:25:00,42.6,17.5,29.84,West,267,13.0,26.0,36,0.00,,---,0.00,VWS V14.01,2013-03-03 19:25:00,
2013-03-03 12:31:00,42.3,17.3,29.84,South,179,10.0,21.0,36,0.00,,---,0.00,VWS V14.01,2013-03-03 19:31:00,
2013-03-03 12:36:00,42.4,17.4,29.84,SW,221,9.0,10.0,36,0.00,,---,0.00,VWS V14.01,2013-03-03 19:36:00,
2013-03-03 12:41:00,43.3,19.4,29.83,WSW,242,12.0,13.0,38,0.00,,---,0.00,VWS V14.01,2013-03-03 19:41:00,
2013-03-03 12:45:00,43.7,19.1,29.83,SSW,192,11.0,16.0,37,0.00,,---,0.00,VWS V14.01,2013-03-03 19:45:00,
2013-03-03 12:51:00,43.4,17.6,29.83,SSW,206,8.0,26.0,35,0.00,,---,0.00,VWS V14.01,2013-03-03 19:51:00,
2013-03-03 12:56:00,42.6,17.5,29.82,SSW,200,15.0,27.0,36,0.00,,---,0.00,VWS V14.01,2013-03-03 19:56:00,
2013-03-03 13:01:00,42.6,18.8,29.82,South,185,10.0,19.0,38,0.00,,---,0.00,VWS V14.01,2013-03-03 20:01:00,
2013-03-03 13:06:00,43.0,18.5,29.82,SSW,207,11.0,20.0,37,0.00,,---,0.00,VWS V14.01,2013-03-03 20:06:00,
2013-03-03 13:11:00,43.7,18.5,29.81,West,267,10.0,18.0,36,0.00,,---,0.00,VWS V14.01,2013-03-03 20:11:00,
2013-03-03 13:16:00,44.1,19.5,29.81,WSW,243,12.0,20.0,37,0.00,,---,0.00,VWS V14.01,2013-03-03 20:16:00,
2013-03-03 13:21:00,44.2,19.0,29.81,West,267,12.0,18.0,36,0.00,,---,0.00,VWS V14.01,2013-03-03 20:21:00,
2013-03-03 13:26:00,44.3,19.0,29.81,SW,232,18.0,23.0,36,0.00,,---,0.00,VWS V14.01,2013-03-03 20:26:00,
2013-03-03 13:31:00,44.2,19.0,29.80,NW,315,8.0,22.0,36,0.00,,---,0.00,VWS V14.01,2013-03-03 20:31:00,
2013-03-03 13:36:00,44.7,18.8,29.80,South,190,8.0,20.0,35,0.00,,---,0.00,VWS V14.01,2013-03-03 20:36:00,
2013-03-03 13:41:00,44.9,18.2,29.80,SSW,209,13.0,14.0,34,0.00,,---,0.00,VWS V14.01,2013-03-03 20:41:00,
2013-03-03 13:46:00,45.0,17.6,29.79,West,267,11.0,11.0,33,0.00,,---,0.00,VWS V14.01,2013-03-03 20:46:00,
2013-03-03 13:51:00,44.7,18.1,29.79,WSW,252,7.0,14.0,34,0.00,,---,0.00,VWS V14.01,2013-03-03 20:51:00,
2013-03-03 13:56:00,44.7,19.4,29.79,WSW,251,14.0,14.0,36,0.00,,---,0.00,VWS V14.01,2013-03-03 20:56:00,
2013-03-03 14:01:00,45.0,18.3,29.79,SW,223,5.0,18.0,34,0.00,,---,0.00,VWS V14.01,2013-03-03 21:01:00,
2013-03-03 14:06:00,44.5,19.2,29.79,West,273,28.0,28.0,36,0.00,,---,0.00,VWS V14.01,2013-03-03 21:06:00,
2013-03-03 14:11:00,43.9,17.4,29.79,SW,233,6.0,8.0,34,0.00,,---,0.00,VWS V14.01,2013-03-03 21:11:00,
2013-03-03 14:16:00,43.6,18.4,29.79,West,264,6.0,12.0,36,0.00,,---,0.00,VWS V14.01,2013-03-03 21:16:00,
2013-03-03 14:21:00,44.3,19.0,29.79,SW,233,7.0,12.0,36,0.00,,---,0.00,VWS V14.01,2013-03-03 21:21:00,
2013-03-03 14:26:00,44.5,18.6,29.79,SSW,207,21.0,21.0,35,0.00,,---,0.00,VWS V14.01,2013-03-03 21:26:00,
2013-03-03 14:31:00,44.0,18.8,29.78,WSW,252,20.0,20.0,36,0.00,,---,0.00,VWS V14.01,2013-03-03 21:31:00,
2013-03-03 14:36:00,44.0,19.4,29.78,SW,234,13.0,18.0,37,0.00,,---,0.00,VWS V14.01,2013-03-03 21:36:00,
2013-03-03 14:41:00,43.8,19.2,29.78,West,269,12.0,20.0,37,0.00,,---,0.00,VWS V14.01,2013-03-03 21:41:00,
2013-03-03 14:46:00,43.9,19.3,29.78,WSW,248,9.0,20.0,37,0.00,,---,0.00,VWS V14.01,2013-03-03 21:46:00,
2013-03-03 14:51:00,43.8,19.2,29.77,SSW,213,13.0,22.0,37,0.00,,---,0.00,VWS V14.01,2013-03-03 21:51:00,
2013-03-03 14:57:00,43.5,19.0,29.78,SW,215,21.0,22.0,37,0.00,,---,0.00,VWS V14.01,2013-03-03 21:57:00,
2013-03-03 15:02:00,43.6,19.1,29.78,WSW,253,11.0,20.0,37,0.00,,---,0.00,VWS V14.01,2013-03-03 22:02:00,
2013-03-03 15:07:00,43.6,19.1,29.78,SW,215,11.0,20.0,37,0.00,,---,0.00,VWS V14.01,2013-03-03 22:07:00,
2013-03-03 15:12:00,43.3,18.8,29.78,WSW,244,19.0,19.0,37,0.00,,---,0.00,VWS V14.01,2013-03-03 22:12:00,
2013-03-03 15:17:00,43.2,19.3,29.78,WSW,244,8.0,25.0,38,0.00,,---,0.00,VWS V14.01,2013-03-03 22:17:00,
2013-03-03 15:21:00,42.5,18.7,29.79,SW,234,8.0,21.0,38,0.00,,---,0.00,VWS V14.01,2013-03-03 22:21:00,
2013-03-03 15:27:00,42.7,18.9,29.78,SW,217,5.0,16.0,38,0.00,,---,0.00,VWS V14.01,2013-03-03 22:27:00,
2013-03-03 15:32:00,42.8,19.0,29.78,SSW,200,9.0,30.0,38,0.00,,---,0.00,VWS V14.01,2013-03-03 22:32:00,
2013-03-03 15:37:00,42.3,19.1,29.78,SSW,204,9.0,19.0,39,0.00,,---,0.00,VWS V14.01,2013-03-03 22:37:00,
2013-03-03 15:42:00,42.0,18.9,29.78,SW,215,7.0,21.0,39,0.00,,---,0.00,VWS V14.01,2013-03-03 22:42:00,
2013-03-03 15:47:00,41.6,19.1,29.79,South,189,16.0,22.0,40,0.00,,---,0.00,VWS V14.01,2013-03-03 22:47:00,
2013-03-03 15:52:00,41.1,19.2,29.79,West,264,9.0,12.0,41,0.00,,---,0.00,VWS V14.01,2013-03-03 22:52:00,
2013-03-03 15:57:00,41.1,19.2,29.78,WSW,242,13.0,27.0,41,0.00,,---,0.00,VWS V14.01,2013-03-03 22:57:00,
2013-03-03 16:02:00,40.5,19.2,29.78,SW,223,18.0,18.0,42,0.00,,---,0.00,VWS V14.01,2013-03-03 23:02:00,
2013-03-03 16:07:00,39.6,19.5,29.79,SW,229,10.0,11.0,44,0.00,,---,0.00,VWS V14.01,2013-03-03 23:07:00,
2013-03-03 16:12:00,39.0,19.5,29.78,WSW,246,8.0,13.0,45,0.00,,---,0.00,VWS V14.01,2013-03-03 23:12:00,
2013-03-03 16:17:00,38.6,19.1,29.79,SW,232,12.0,13.0,45,0.00,,---,0.00,VWS V14.01,2013-03-03 23:17:00,
2013-03-03 16:22:00,38.4,19.4,29.78,SSW,213,13.0,24.0,46,0.00,,---,0.00,VWS V14.01,2013-03-03 23:22:00,
2013-03-03 16:27:00,38.3,19.4,29.79,West,271,22.0,22.0,46,0.00,,---,0.00,VWS V14.01,2013-03-03 23:27:00,
2013-03-03 16:32:00,38.1,19.7,29.78,SW,222,12.0,20.0,47,0.00,,---,0.00,VWS V14.01,2013-03-03 23:32:00,
2013-03-03 16:37:00,38.0,20.1,29.78,SSW,202,5.0,16.0,48,0.00,,---,0.00,VWS V14.01,2013-03-03 23:37:00,
2013-03-03 16:42:00,38.1,20.2,29.79,SSW,204,11.0,13.0,48,0.00,,---,0.00,VWS V14.01,2013-03-03 23:42:00,
2013-03-03 16:47:00,38.2,20.2,29.79,NW,311,10.0,15.0,48,0.00,,---,0.00,VWS V14.01,2013-03-03 23:47:00,
2013-03-03 16:52:00,38.0,20.1,29.78,SW,220,7.0,26.0,48,0.00,,---,0.00,VWS V14.01,2013-03-03 23:52:00,
2013-03-03 16:57:00,37.8,20.4,29.79,SSW,198,12.0,21.0,49,0.00,,---,0.00,VWS V14.01,2013-03-03 23:57:00,
2013-03-03 17:03:00,37.8,20.4,29.78,SW,227,12.0,19.0,49,0.00,,---,0.00,VWS V14.01,2013-03-04 00:03:00,
2013-03-03 17:08:00,37.8,20.8,29.78,SSW,213,11.0,13.0,50,0.00,,---,0.00,VWS V14.01,2013-03-04 00:08:00,
2013-03-03 17:13:00,37.4,20.5,29.79,WSW,249,16.0,24.0,50,0.00,,---,0.00,VWS V14.01,2013-03-04 00:13:00,
2013-03-03 17:18:00,36.8,19.5,29.79,WSW,242,12.0,16.0,49,0.00,,---,0.00,VWS V14.01,2013-03-04 00:18:00,
2013-03-03 17:23:00,36.4,19.5,29.79,West,263,19.0,21.0,50,0.00,,---,0.00,VWS V14.01,2013-03-04 00:23:00,
2013-03-03 17:28:00,36.1,19.7,29.80,SSW,197,12.0,20.0,51,0.00,,---,0.00,VWS V14.01,2013-03-04 00:28:00,
2013-03-03 17:33:00,35.8,19.9,29.80,SSW,205,10.0,15.0,52,0.00,,---,0.00,VWS V14.01,2013-03-04 00:33:00,
2013-03-03 17:38:00,35.6,19.7,29.80,SW,226,20.0,20.0,52,0.00,,---,0.00,VWS V14.01,2013-03-04 00:38:00,
2013-03-03 17:43:00,35.5,19.2,29.80,WSW,240,12.0,23.0,51,0.00,,---,0.00,VWS V14.01,2013-03-04 00:43:00,
2013-03-03 17:48:00,35.5,18.7,29.80,West,266,19.0,23.0,50,0.00,,---,0.00,VWS V14.01,2013-03-04 00:48:00,
2013-03-03 17:53:00,35.4,19.1,29.81,WSW,243,18.0,18.0,51,0.00,,---,0.00,VWS V14.01,2013-03-04 00:53:00,
2013-03-03 17:58:00,35.2,18.9,29.81,SSW,206,14.0,21.0,51,0.00,,---,0.00,VWS V14.01,2013-03-04 00:58:00,
2013-03-03 18:03:00,35.1,19.3,29.81,WSW,241,10.0,15.0,52,0.00,,---,0.00,VWS V14.01,2013-03-04 01:03:00,
2013-03-03 18:08:00,34.9,19.5,29.82,SW,214,10.0,16.0,53,0.00,,---,0.00,VWS V14.01,2013-03-04 01:08:00,
2013-03-03 18:13:00,34.7,19.3,29.82,SW,224,11.0,16.0,53,0.00,,---,0.00,VWS V14.01,2013-03-04 01:13:00,
2013-03-03 18:18:00,34.5,19.6,29.82,WSW,242,14.0,19.0,54,0.00,,---,0.00,VWS V14.01,2013-03-04 01:18:00,
2013-03-03 18:23:00,34.4,19.9,29.82,WSW,242,5.0,12.0,55,0.00,,---,0.00,VWS V14.01,2013-03-04 01:23:00,
2013-03-03 18:28:00,34.3,20.2,29.83,WSW,257,7.0,18.0,56,0.00,,---,0.00,VWS V14.01,2013-03-04 01:28:00,
2013-03-03 18:34:00,34.1,20.5,29.82,SW,217,10.0,12.0,57,0.00,,---,0.00,VWS V14.01,2013-03-04 01:34:00,
2013-03-03 18:39:00,34.0,20.8,29.82,SSW,203,11.0,16.0,58,0.00,,---,0.00,VWS V14.01,2013-03-04 01:39:00,
2013-03-03 18:44:00,33.9,20.7,29.82,SW,220,9.0,11.0,58,0.00,,---,0.00,VWS V14.01,2013-03-04 01:44:00,
2013-03-03 18:49:00,33.7,20.9,29.82,SW,216,10.0,10.0,59,0.00,,---,0.00,VWS V14.01,2013-03-04 01:49:00,
2013-03-03 18:54:00,33.4,21.0,29.83,SW,221,6.0,9.0,60,0.00,,---,0.00,VWS V14.01,2013-03-04 01:54:00,
2013-03-03 18:59:00,33.3,20.9,29.82,SW,215,6.0,6.0,60,0.00,,---,0.00,VWS V14.01,2013-03-04 01:59:00,
2013-03-03 19:04:00,33.2,21.2,29.82,SW,218,8.0,8.0,61,0.00,,---,0.00,VWS V14.01,2013-03-04 02:04:00,
2013-03-03 19:09:00,33.0,21.4,29.82,SW,219,6.0,7.0,62,0.00,,---,0.00,VWS V14.01,2013-03-04 02:09:00,
2013-03-03 19:14:00,32.9,21.7,29.82,SW,224,8.0,9.0,63,0.00,,---,0.00,VWS V14.01,2013-03-04 02:14:00,
2013-03-03 19:19:00,32.8,21.6,29.82,West,259,4.0,10.0,63,0.00,,---,0.00,VWS V14.01,2013-03-04 02:19:00,
2013-03-03 19:24:00,32.7,21.5,29.82,SW,231,8.0,11.0,63,0.00,,---,0.00,VWS V14.01,2013-03-04 02:24:00,
2013-03-03 19:29:00,32.6,21.4,29.82,SW,228,7.0,13.0,63,0.00,,---,0.00,VWS V14.01,2013-03-04 02:29:00,
2013-03-03 19:34:00,32.5,21.3,29.82,SSW,195,10.0,18.0,63,0.00,,---,0.00,VWS V14.01,2013-03-04 02:34:00,
2013-03-03 19:39:00,32.6,21.4,29.82,SSW,213,11.0,15.0,63,0.00,,---,0.00,VWS V14.01,2013-03-04 02:39:00,
2013-03-03 19:45:00,32.6,21.4,29.81,SW,215,8.0,14.0,63,0.00,,---,0.00,VWS V14.01,2013-03-04 02:45:00,
2013-03-03 19:50:00,32.4,21.6,29.81,SW,235,2.0,13.0,64,0.00,,---,0.00,VWS V14.01,2013-03-04 02:50:00,
2013-03-03 19:55:00,32.3,21.5,29.81,SSW,203,15.0,15.0,64,0.00,,---,0.00,VWS V14.01,2013-03-04 02:55:00,
2013-03-03 20:00:00,32.2,21.8,29.81,SSW,208,11.0,11.0,65,0.00,,---,0.00,VWS V14.01,2013-03-04 03:00:00,
2013-03-03 20:05:00,32.1,21.7,29.81,SW,229,11.0,11.0,65,0.00,,---,0.00,VWS V14.01,2013-03-04 03:05:00,
2013-03-03 20:10:00,31.9,21.5,29.81,SSW,207,7.0,8.0,65,0.00,,---,0.00,VWS V14.01,2013-03-04 03:10:00,
2013-03-03 20:15:00,31.7,21.7,29.81,SSW,200,7.0,12.0,66,0.00,,---,0.00,VWS V14.01,2013-03-04 03:15:00,
2013-03-03 20:20:00,31.6,21.6,29.81,SW,225,8.0,10.0,66,0.00,,---,0.00,VWS V14.01,2013-03-04 03:20:00,
2013-03-03 20:25:00,31.5,21.5,29.81,SSW,210,6.0,6.0,66,0.00,,---,0.00,VWS V14.01,2013-03-04 03:25:00,
2013-03-03 20:30:00,31.4,21.4,29.81,SW,230,5.0,10.0,66,0.00,,---,0.00,VWS V14.01,2013-03-04 03:30:00,
2013-03-03 20:35:00,31.3,21.3,29.81,SW,216,8.0,8.0,66,0.00,,---,0.00,VWS V14.01,2013-03-04 03:35:00,
2013-03-03 20:40:00,31.2,20.8,29.82,SW,236,7.0,7.0,65,0.00,,---,0.00,VWS V14.01,2013-03-04 03:40:00,
2013-03-03 20:45:00,31.2,20.8,29.82,SW,229,4.0,5.0,65,0.00,,---,0.00,VWS V14.01,2013-03-04 03:45:00,
2013-03-03 20:50:00,31.0,20.3,29.82,SW,215,4.0,5.0,64,0.00,,---,0.00,VWS V14.01,2013-03-04 03:50:00,
2013-03-03 20:55:00,30.9,20.2,29.81,SW,227,4.0,4.0,64,0.00,,---,0.00,VWS V14.01,2013-03-04 03:55:00,
2013-03-03 21:00:00,31.0,19.9,29.81,West,271,6.0,6.0,63,0.00,,---,0.00,VWS V14.01,2013-03-04 04:00:00,
2013-03-03 21:05:00,31.5,20.4,29.82,SW,219,3.0,6.0,63,0.00,,---,0.00,VWS V14.01,2013-03-04 04:05:00,
2013-03-03 21:10:00,31.9,20.4,29.82,SSW,213,8.0,10.0,62,0.00,,---,0.00,VWS V14.01,2013-03-04 04:10:00,
2013-03-03 21:15:00,32.0,20.5,29.82,WSW,250,7.0,8.0,62,0.00,,---,0.00,VWS V14.01,2013-03-04 04:15:00,
2013-03-03 21:20:00,32.0,20.5,29.82,WSW,245,7.0,9.0,62,0.00,,---,0.00,VWS V14.01,2013-03-04 04:20:00,
2013-03-03 21:25:00,32.0,20.9,29.83,SW,229,2.0,3.0,63,0.00,,---,0.00,VWS V14.01,2013-03-04 04:25:00,
2013-03-03 21:30:00,31.8,20.7,29.83,WSW,244,5.0,10.0,63,0.00,,---,0.00,VWS V14.01,2013-03-04 04:30:00,
2013-03-03 21:35:00,31.7,20.9,29.83,West,263,8.0,9.0,64,0.00,,---,0.00,VWS V14.01,2013-03-04 04:35:00,
2013-03-03 21:40:00,31.8,21.4,29.83,WSW,253,5.0,8.0,65,0.00,,---,0.00,VWS V14.01,2013-03-04 04:40:00,
2013-03-03 21:45:00,31.9,22.2,29.82,West,265,10.0,11.0,67,0.00,,---,0.00,VWS V14.01,2013-03-04 04:45:00,
2013-03-03 21:50:00,31.7,22.7,29.82,WSW,251,10.0,11.0,69,0.00,,---,0.00,VWS V14.01,2013-03-04 04:50:00,
2013-03-03 21:56:00,31.5,22.9,29.83,WSW,244,4.0,10.0,70,0.00,,---,0.00,VWS V14.01,2013-03-04 04:56:00,
2013-03-03 22:00:00,31.2,22.9,29.82,WSW,238,6.0,7.0,71,0.00,,---,0.00,VWS V14.01,2013-03-04 05:00:00,
2013-03-03 22:01:00,31.2,22.9,29.83,West,259,4.0,7.0,71,0.00,,---,0.00,VWS V14.01,2013-03-04 05:01:00,
2013-03-03 22:06:00,31.0,23.0,29.82,WSW,237,5.0,7.0,72,0.00,,---,0.00,VWS V14.01,2013-03-04 05:06:00,
2013-03-03 22:11:00,30.8,22.9,29.82,WSW,244,5.0,5.0,72,0.00,,---,0.00,VWS V14.01,2013-03-04 05:11:00,
2013-03-03 22:16:00,30.6,23.0,29.82,WSW,243,0.0,4.0,73,0.00,,---,0.00,VWS V14.01,2013-03-04 05:16:00,
2013-03-03 22:21:00,30.4,22.8,29.82,WSW,243,2.0,4.0,73,0.00,,---,0.00,VWS V14.01,2013-03-04 05:21:00,
2013-03-03 22:26:00,30.2,22.6,29.81,SW,234,4.0,6.0,73,0.00,,---,0.00,VWS V14.01,2013-03-04 05:26:00,
2013-03-03 22:31:00,29.9,22.6,29.81,SW,215,0.0,5.0,74,0.00,,---,0.00,VWS V14.01,2013-03-04 05:31:00,
2013-03-03 22:36:00,29.7,22.4,29.81,SW,215,5.0,6.0,74,0.00,,---,0.00,VWS V14.01,2013-03-04 05:36:00,
2013-03-03 22:41:00,29.5,22.2,29.81,West,261,6.0,6.0,74,0.00,,---,0.00,VWS V14.01,2013-03-04 05:41:00,
2013-03-03 22:46:00,29.5,22.2,29.81,WSW,243,1.0,2.0,74,0.00,,---,0.00,VWS V14.01,2013-03-04 05:46:00,
2013-03-03 22:51:00,29.4,22.1,29.81,WSW,242,2.0,2.0,74,0.00,,---,0.00,VWS V14.01,2013-03-04 05:51:00,
2013-03-03 22:56:00,29.2,22.3,29.81,WSW,242,0.0,1.0,75,0.00,,---,0.00,VWS V14.01,2013-03-04 05:56:00,
2013-03-03 23:01:00,29.0,21.8,29.80,WSW,241,1.0,2.0,74,0.00,,---,0.00,VWS V14.01,2013-03-04 06:01:00,
2013-03-03 23:06:00,28.9,21.4,29.80,SW,233,4.0,10.0,73,0.00,,---,0.00,VWS V14.01,2013-03-04 06:06:00,
2013-03-03 23:12:00,29.0,21.4,29.80,SW,228,2.0,8.0,73,0.00,,---,0.00,VWS V14.01,2013-03-04 06:12:00,
2013-03-03 23:17:00,29.4,21.8,29.80,West,280,3.0,13.0,73,0.00,,---,0.00,VWS V14.01,2013-03-04 06:17:00,
2013-03-03 23:22:00,29.7,21.8,29.80,SW,232,1.0,11.0,72,0.00,,---,0.00,VWS V14.01,2013-03-04 06:22:00,
2013-03-03 23:27:00,29.8,21.6,29.80,SSW,211,9.0,9.0,71,0.00,,---,0.00,VWS V14.01,2013-03-04 06:27:00,
2013-03-03 23:32:00,30.0,21.8,29.80,SSW,207,7.0,9.0,71,0.00,,---,0.00,VWS V14.01,2013-03-04 06:32:00,
2013-03-03 23:37:00,30.1,21.5,29.80,SSW,213,2.0,6.0,70,0.00,,---,0.00,VWS V14.01,2013-03-04 06:37:00,
2013-03-03 23:42:00,30.1,21.5,29.80,WSW,244,5.0,7.0,70,0.00,,---,0.00,VWS V14.01,2013-03-04 06:42:00,
2013-03-03 23:47:00,30.1,21.5,29.80,SW,214,2.0,6.0,70,0.00,,---,0.00,VWS V14.01,2013-03-04 06:47:00,
2013-03-03 23:52:00,30.1,21.5,29.80,SSW,202,6.0,6.0,70,0.00,,---,0.00,VWS V14.01,2013-03-04 06:52:00,
2013-03-03 23:57:00,30.3,21.4,29.80,WSW,251,5.0,18.0,69,0.00,,---,0.00,VWS V14.01,2013-03-04 06:57:00,